Time;durP1;ratioP1;P1;durP2;ratioP2;P2;SDS_P1;SDS_P2;PMS_P1;PMS_P2;Temp;Humidity;BMP_temperature;BMP_pressure;BME280_temperature;BME280_humidity;BME280_pressure;Samples;Min_cycle;Max_cycle;Signal;HPM_P1;HPM_P2
2020/12/06 00:04:49;;;;;;;;;;;1.10;99.90;;;0.25;95.87;93863.28;10445416;28;1960;-85
2020/12/06 00:09:51;;;;;;;;;;;1.60;99.90;;;0.37;95.82;93884.22;10440141;28;2122;-83
2020/12/06 00:14:53;;;;;;;;;;;1.30;99.90;;;0.46;95.16;93875.56;10445356;28;2052;-82
2020/12/06 00:19:54;;;;;;;;;;;1.40;99.90;;;0.40;94.78;93889.81;10448105;28;1535;-83
2020/12/06 00:24:56;;;;;;;;;;;2.90;99.90;;;0.46;94.63;93875.56;10458297;28;2045;-83
2020/12/06 00:29:58;;;;;;;;;;;2.50;99.90;;;0.50;94.11;93852.81;10424928;28;2089;-85
2020/12/06 00:34:59;;;;;;;;;;;1.60;99.90;;;0.35;93.99;93851.97;10462428;28;2053;-86
2020/12/06 00:40:01;;;;;;;;;;;1.50;99.90;;;0.12;94.08;93864.53;10459748;28;2142;-85
2020/12/06 00:45:04;;;;;;;;;;;1.20;99.90;;;0.16;94.66;93841.03;10431922;28;1968;-85
2020/12/06 00:50:06;;;;;;;;;;;2.00;99.90;;;0.18;94.84;93854.78;10462635;28;1990;-84
2020/12/06 00:55:08;;;;;;;;;;;2.70;99.90;;;0.33;94.56;93852.25;10455892;28;2032;-86
2020/12/06 01:00:10;;;;;;;;;;;1.30;99.90;;;0.36;94.70;93835.84;10458921;28;2062;-84
2020/12/06 01:05:12;;;;;;;;;;;3.00;99.90;;;0.36;94.35;93830.56;10447450;28;1957;-83
2020/12/06 01:10:14;;;;;;;;;;;1.40;99.90;;;0.39;94.29;93835.34;10445794;28;2063;-83
2020/12/06 01:15:15;;;;;;;;;;;1.40;99.90;;;0.41;94.35;93872.09;10450321;28;1884;-83
2020/12/06 01:20:17;;;;;;;;;;;2.70;99.90;;;0.48;94.21;93854.94;10452759;28;2352;-83
2020/12/06 01:25:19;;;;;;;;;;;1.40;99.90;;;0.49;93.90;93834.59;10446710;28;1890;-81
2020/12/06 01:30:21;;;;;;;;;;;2.70;99.90;;;0.46;93.99;93837.75;10449863;28;2072;-83
2020/12/06 01:35:23;;;;;;;;;;;1.50;99.90;;;0.33;94.03;93802.03;10448276;28;1711;-84
2020/12/06 01:40:24;;;;;;;;;;;1.80;99.90;;;0.22;94.15;93840.81;10443530;28;1952;-84
2020/12/06 01:45:26;;;;;;;;;;;1.30;99.90;;;0.25;94.50;93828.91;10452393;28;1886;-84
2020/12/06 01:50:28;;;;;;;;;;;1.30;99.90;;;0.25;95.11;93836.84;10433481;28;2150;-82
2020/12/06 01:55:30;;;;;;;;;;;1.30;99.90;;;0.28;95.17;93817.84;10440720;28;2206;-82
2020/12/06 02:00:32;;;;;;;;;;;1.30;99.90;;;0.20;94.90;93805.13;10445953;28;1935;-80
2020/12/06 02:05:33;;;;;;;;;;;1.30;99.90;;;0.23;94.93;93799.31;10454198;28;1940;-84
2020/12/06 02:10:35;;;;;;;;;;;1.30;99.90;;;0.22;94.93;93838.16;10455835;28;1879;-85
2020/12/06 02:15:37;;;;;;;;;;;1.30;99.90;;;0.31;95.23;93804.09;10442731;28;1682;-84
2020/12/06 02:20:39;;;;;;;;;;;3.00;99.90;;;0.26;95.44;93775.03;10449697;28;2083;-83
2020/12/06 02:25:40;;;;;;;;;;;1.90;99.90;;;0.20;95.45;93768.16;10440414;28;2026;-84
2020/12/06 02:30:42;;;;;;;;;;;1.30;99.90;;;0.21;95.26;93748.59;10454889;28;2027;-83
2020/12/06 02:35:44;;;;;;;;;;;1.20;99.90;;;0.14;95.25;93732.97;10451508;28;1651;-84
2020/12/06 02:40:46;;;;;;;;;;;1.20;99.90;;;0.06;95.77;93740.59;10452787;28;2113;-83
2020/12/06 02:45:47;;;;;;;;;;;1.10;99.90;;;0.14;95.59;93758.59;10442278;28;2134;-85
2020/12/06 02:50:49;;;;;;;;;;;1.00;99.90;;;-0.05;95.67;93759.03;10456042;28;2079;-85
2020/12/06 02:55:51;;;;;;;;;;;1.70;99.90;;;-0.13;95.82;93738.38;10450993;28;2034;-83
2020/12/06 03:00:53;;;;;;;;;;;1.00;99.90;;;-0.22;95.86;93724.09;10456100;28;2032;-85
2020/12/06 03:05:54;;;;;;;;;;;1.00;99.90;;;-0.21;96.13;93707.19;10441485;28;2138;-85
2020/12/06 03:10:56;;;;;;;;;;;1.00;99.90;;;-0.48;96.33;93641.34;10441994;28;2095;-85
2020/12/06 03:15:58;;;;;;;;;;;0.70;99.90;;;-0.42;96.40;93676.47;10451868;28;2028;-84
2020/12/06 03:21:00;;;;;;;;;;;0.60;99.90;;;-0.36;96.33;93691.28;10443440;28;2092;-85
2020/12/06 03:26:02;;;;;;;;;;;1.50;99.90;;;-0.34;96.06;93681.25;10452539;28;2028;-84
2020/12/06 03:31:04;;;;;;;;;;;0.70;99.90;;;-0.40;96.07;93696.28;10439869;28;1911;-84
2020/12/06 03:36:10;;;;;;;;;;;1.60;99.90;;;-0.36;96.10;93707.13;10431345;28;1884;-83
2020/12/06 03:41:12;;;;;;;;;;;2.50;99.90;;;-0.31;96.12;93693.97;10447169;28;2189;-84
2020/12/06 03:46:13;;;;;;;;;;;2.40;99.90;;;-0.43;96.13;93683.59;10445346;28;2095;-84
2020/12/06 03:51:15;;;;;;;;;;;0.60;99.90;;;-0.29;96.47;93687.34;10450615;28;2023;-85
2020/12/06 03:56:17;;;;;;;;;;;1.10;99.90;;;-0.20;95.98;93687.66;10447897;28;1979;-83
2020/12/06 04:01:19;;;;;;;;;;;0.80;99.90;;;-0.23;96.11;93682.91;10461683;28;1940;-85
2020/12/06 04:06:20;;;;;;;;;;;1.90;99.90;;;-0.27;95.74;93700.28;10445675;28;2396;-85
2020/12/06 04:11:22;;;;;;;;;;;2.00;99.90;;;-0.18;96.09;93682.13;10457777;28;1976;-83
2020/12/06 04:16:24;;;;;;;;;;;0.80;99.90;;;-0.27;96.18;93713.50;10440350;28;2082;-85
2020/12/06 04:21:29;;;;;;;;;;;0.80;99.90;;;-0.12;96.31;93707.50;10442810;28;2115;-84
2020/12/06 04:26:31;;;;;;;;;;;2.90;99.90;;;-0.09;96.21;93686.66;10559027;22;3450;-83
2020/12/06 04:31:33;;;;;;;;;;;2.00;99.90;;;-0.22;95.88;93671.28;10400915;28;2053;-85
2020/12/06 04:36:34;;;;;;;;;;;2.00;99.90;;;-0.18;95.94;93690.06;10410126;28;2029;-82
2020/12/06 04:41:37;;;;;;;;;;;2.40;99.90;;;-0.37;96.12;93689.69;10407496;28;2104;-83
2020/12/06 04:46:38;;;;;;;;;;;0.70;99.90;;;-0.28;96.62;93717.97;10415278;28;1933;-85
2020/12/06 04:51:40;;;;;;;;;;;1.10;99.90;;;-0.25;96.63;93732.53;10417021;28;2123;-82
2020/12/06 04:56:42;;;;;;;;;;;1.50;99.90;;;-0.18;96.56;93743.66;10411990;28;2088;-82
2020/12/06 05:01:44;;;;;;;;;;;1.00;99.90;;;-0.07;96.88;93740.00;10419648;28;1956;-83
2020/12/06 05:06:46;;;;;;;;;;;0.80;99.90;;;0.05;96.51;93744.28;10406801;28;2061;-84
2020/12/06 05:11:48;;;;;;;;;;;2.50;99.90;;;0.04;96.83;93747.97;10402716;28;2009;-85
2020/12/06 05:16:49;;;;;;;;;;;1.00;99.90;;;0.03;96.02;93752.47;10413263;28;2191;-81
2020/12/06 05:21:51;;;;;;;;;;;1.80;99.90;;;0.09;96.07;93777.88;10412715;28;2009;-83
2020/12/06 05:26:53;;;;;;;;;;;1.10;99.90;;;-0.01;95.90;93775.94;10412046;28;2056;-85
2020/12/06 05:31:55;;;;;;;;;;;1.10;99.90;;;-0.03;96.10;93804.47;10408969;28;2109;-83
2020/12/06 05:36:56;;;;;;;;;;;1.00;99.90;;;-0.09;95.93;93781.72;10409434;28;2072;-83
2020/12/06 05:41:58;;;;;;;;;;;0.90;99.90;;;-0.10;95.89;93796.00;10411097;28;1783;-83
2020/12/06 05:47:00;;;;;;;;;;;0.90;99.90;;;-0.19;95.83;93791.44;10410152;28;1984;-84
2020/12/06 05:52:03;;;;;;;;;;;1.10;99.90;;;-0.25;95.68;93773.97;10409701;28;2167;-84
2020/12/06 05:57:04;;;;;;;;;;;2.10;99.90;;;-0.38;95.55;93762.81;10404503;28;1921;-84
2020/12/06 06:02:06;;;;;;;;;;;0.70;99.90;;;-0.36;96.08;93781.03;10414546;28;2179;-85
2020/12/06 06:07:08;;;;;;;;;;;0.70;99.90;;;-0.31;96.05;93767.88;10409838;28;2037;-86
2020/12/06 06:12:09;;;;;;;;;;;0.70;99.90;;;-0.19;95.77;93739.44;10427004;28;1839;-86
2020/12/06 06:17:11;;;;;;;;;;;0.80;99.90;;;-0.18;95.54;93745.50;10421664;28;1867;-85
2020/12/06 06:22:13;;;;;;;;;;;0.80;99.90;;;-0.20;95.55;93742.31;10413835;28;2139;-82
2020/12/06 06:27:14;;;;;;;;;;;2.40;99.90;;;-0.15;96.00;93782.75;10411911;28;2171;-81
2020/12/06 06:32:16;;;;;;;;;;;0.80;99.90;;;-0.21;95.44;93810.16;10400846;28;1974;-83
2020/12/06 06:37:18;;;;;;;;;;;0.80;99.90;;;-0.11;95.54;93810.25;10412724;28;2154;-85
2020/12/06 06:42:20;;;;;;;;;;;0.90;99.90;;;-0.10;95.36;93792.56;10422191;28;1757;-86
2020/12/06 06:47:22;;;;;;;;;;;0.90;99.90;;;-0.07;95.03;93786.75;10420406;28;2124;-82
2020/12/06 06:52:23;;;;;;;;;;;0.90;99.90;;;-0.15;94.87;93798.59;10410808;28;2283;-85
2020/12/06 06:57:25;;;;;;;;;;;0.90;99.90;;;-0.12;95.32;93803.38;10401945;28;2088;-84
2020/12/06 07:02:27;;;;;;;;;;;1.10;99.90;;;-0.08;95.01;93804.44;10412972;28;2073;-84
2020/12/06 07:07:29;;;;;;;;;;;2.70;99.90;;;-0.06;95.54;93814.78;10397261;28;2247;-84
2020/12/06 07:12:31;;;;;;;;;;;2.80;99.90;;;-0.20;95.09;93822.31;10401663;28;1903;-86
2020/12/06 07:17:33;;;;;;;;;;;0.90;99.90;;;-0.04;95.04;93824.03;10401292;28;1990;-84
2020/12/06 07:22:35;;;;;;;;;;;1.80;99.90;;;-0.02;95.09;93819.28;10401267;28;2024;-82
2020/12/06 07:27:36;;;;;;;;;;;1.00;99.90;;;0.10;95.47;93828.84;10394801;28;2029;-84
2020/12/06 07:32:38;;;;;;;;;;;2.50;99.90;;;0.16;95.48;93856.88;10401869;28;2048;-86
2020/12/06 07:37:40;;;;;;;;;;;2.40;99.90;;;0.30;95.10;93855.38;10421160;28;1932;-82
2020/12/06 07:42:42;;;;;;;;;;;1.30;99.90;;;0.40;94.43;93862.56;10422379;28;1623;-85
2020/12/06 07:47:44;;;;;;;;;;;1.30;99.90;;;0.49;94.61;93880.31;10411624;28;2069;-85
2020/12/06 07:52:46;;;;;;;;;;;1.40;99.90;;;0.62;94.53;93910.78;10406725;28;2068;-85
2020/12/06 07:57:48;;;;;;;;;;;1.60;99.90;;;0.79;94.28;93918.56;10405485;28;1743;-83
2020/12/06 08:02:49;;;;;;;;;;;1.90;99.90;;;0.82;93.95;93933.88;10401202;28;2095;-86
2020/12/06 08:07:51;;;;;;;;;;;1.80;99.90;;;1.00;93.72;93925.50;10400269;28;2154;-85
2020/12/06 08:12:53;;;;;;;;;;;1.90;99.90;;;1.06;92.92;93935.06;10407140;28;2121;-85
2020/12/06 08:17:55;;;;;;;;;;;2.40;99.90;;;1.18;92.41;93939.34;10410456;28;1880;-84
2020/12/06 08:22:57;;;;;;;;;;;3.10;99.90;;;1.30;91.98;93937.25;10414373;28;2068;-84
2020/12/06 08:28:03;;;;;;;;;;;3.20;99.90;;;1.40;91.42;93917.94;10400239;28;1930;-83
2020/12/06 08:33:04;;;;;;;;;;;2.40;99.90;;;1.51;90.76;93920.34;10391069;28;2167;-85
2020/12/06 08:38:09;;;;;;;;;;;2.50;99.90;;;1.56;89.89;93938.13;10395126;28;2102;-84
2020/12/06 08:43:11;;;;;;;;;;;4.60;99.90;;;1.57;89.56;93955.59;10391797;28;1972;-84
2020/12/06 08:48:12;;;;;;;;;;;3.60;99.90;;;1.66;89.56;93947.94;10401329;28;2014;-83
2020/12/06 08:53:14;;;;;;;;;;;2.60;99.90;;;1.71;89.27;93967.25;10398844;28;2096;-83
2020/12/06 08:58:16;;;;;;;;;;;4.60;99.90;;;1.83;88.43;93977.63;10399742;28;2265;-81
2020/12/06 09:03:18;;;;;;;;;;;3.70;99.90;;;2.02;87.98;93956.72;10402000;28;2029;-84
2020/12/06 09:08:20;;;;;;;;;;;5.30;99.90;;;2.07;87.98;93938.16;10398912;28;2014;-84
2020/12/06 09:13:24;;;;;;;;;;;3.00;99.90;;;2.20;87.23;93932.31;10396367;28;2263;-85
2020/12/06 09:18:31;;;;;;;;;;;4.00;99.90;;;2.39;86.99;93932.56;10392906;28;2140;-84
2020/12/06 09:23:32;;;;;;;;;;;3.30;99.90;;;2.68;85.75;93930.94;10399775;28;2104;-84
2020/12/06 09:28:34;;;;;;;;;;;5.60;99.90;;;2.78;85.60;93906.22;10407818;28;2441;-86
2020/12/06 09:33:36;;;;;;;;;;;3.70;99.90;;;2.81;84.97;93926.13;10403680;28;2181;-83
2020/12/06 09:38:38;;;;;;;;;;;3.80;99.90;;;3.09;84.71;93898.94;10398661;28;2077;-84
2020/12/06 09:43:49;;;;;;;;;;;3.90;99.90;;;3.14;84.81;93911.41;10413257;28;2123;-84
2020/12/06 09:48:53;;;;;;;;;;;4.00;99.90;;;3.44;83.23;93921.09;10413198;28;2104;-84
2020/12/06 09:54:02;;;;;;;;;;;4.20;99.90;;;3.51;82.30;93919.72;10412776;28;2099;-85
2020/12/06 09:59:06;;;;;;;;;;;5.50;99.90;;;3.67;82.19;93909.00;10426076;28;2252;-85
2020/12/06 10:04:08;;;;;;;;;;;4.50;99.90;;;3.79;80.84;93910.25;10417017;28;2200;-85
2020/12/06 10:09:10;;;;;;;;;;;4.70;99.90;;;3.99;80.87;93909.28;10419994;28;2176;-85
2020/12/06 10:14:12;;;;;;;;;;;6.20;99.90;;;4.11;80.16;93906.28;10421980;28;2129;-86
2020/12/06 10:19:15;;;;;;;;;;;6.20;99.90;;;3.93;80.54;93914.94;10402521;28;2941;-85
2020/12/06 10:24:17;;;;;;;;;;;6.00;99.90;;;4.11;80.68;93868.28;10418048;28;2182;-84
2020/12/06 10:29:19;;;;;;;;;;;6.40;99.90;;;4.46;78.82;93875.94;10410297;28;2088;-85
2020/12/06 10:34:24;;;;;;;;;;;5.30;99.90;;;4.56;78.90;93864.38;10417252;28;2318;-86
2020/12/06 10:39:27;;;;;;;;;;;6.60;99.90;;;4.93;77.13;93874.34;10418829;28;2092;-85
2020/12/06 10:44:34;;;;;;;;;;;5.60;99.90;;;4.65;78.41;93867.22;10399360;28;2421;-84
2020/12/06 10:49:40;;;;;;;;;;;5.50;99.90;;;4.74;77.52;93870.84;10412623;28;2379;-83
2020/12/06 10:54:44;;;;;;;;;;;6.70;99.90;;;5.07;77.54;93882.44;10411662;28;2415;-86
2020/12/06 10:59:46;;;;;;;;;;;6.30;99.90;;;5.15;76.95;93873.81;10415265;28;2051;-85
2020/12/06 11:04:51;;;;;;;;;;;6.00;99.90;;;5.22;75.23;93860.16;10409194;28;2287;-85
2020/12/06 11:09:53;;;;;;;;;;;6.10;99.90;;;5.15;77.18;93849.84;10408116;28;2045;-84
2020/12/06 11:14:55;;;;;;;;;;;6.10;99.90;;;5.09;76.83;93859.78;10411796;28;1874;-87
2020/12/06 11:19:57;;;;;;;;;;;7.30;99.90;;;4.88;76.76;93861.09;10410327;28;1975;-86
2020/12/06 11:24:59;;;;;;;;;;;5.90;99.90;;;4.69;78.65;93861.03;10405268;28;2177;-85
2020/12/06 11:30:01;;;;;;;;;;;7.10;99.90;;;4.40;79.76;93868.28;10402913;28;2184;-87
2020/12/06 11:35:03;;;;;;;;;;;5.60;99.90;;;4.39;80.02;93875.47;10416858;28;1728;-86
2020/12/06 11:40:05;;;;;;;;;;;5.40;99.90;;;4.03;79.86;93862.47;10407252;28;1987;-84
2020/12/06 11:45:07;;;;;;;;;;;7.20;99.90;;;3.88;80.60;93862.63;10397380;28;1985;-86
2020/12/06 11:50:10;;;;;;;;;;;4.90;99.90;;;3.78;80.80;93863.47;10387689;28;2080;-83
2020/12/06 11:55:17;;;;;;;;;;;6.20;99.90;;;3.73;81.33;93852.88;10399208;28;2357;-86
2020/12/06 12:00:25;;;;;;;;;;;4.70;99.90;;;3.99;80.57;93847.34;10401398;28;1920;-83
2020/12/06 12:05:27;;;;;;;;;;;4.80;99.90;;;4.18;79.21;93834.97;10401307;28;2278;-84
2020/12/06 12:10:29;;;;;;;;;;;6.80;99.90;;;4.02;79.38;93829.00;10399774;28;1897;-85
2020/12/06 12:21:02;;;;;;;;;;;4.90;99.90;;;3.79;80.99;93850.97;2954301;26;1906;-83
2020/12/06 12:26:03;;;;;;;;;;;4.80;99.90;;;3.74;81.09;93861.66;10439102;28;2009;-84
2020/12/06 12:31:05;;;;;;;;;;;5.60;99.90;;;3.75;81.22;93850.75;10427769;28;1845;-85
2020/12/06 12:36:07;;;;;;;;;;;6.00;99.90;;;3.72;80.87;93855.81;10458882;28;1862;-86
2020/12/06 12:41:09;;;;;;;;;;;5.20;99.90;;;3.70;80.88;93826.88;10442463;28;1943;-85
2020/12/06 12:46:11;;;;;;;;;;;4.70;99.90;;;3.61;81.17;93839.16;10448803;28;1995;-85
2020/12/06 12:51:13;;;;;;;;;;;4.90;99.90;;;3.62;81.13;93867.31;10434982;28;2050;-84
2020/12/06 12:56:17;;;;;;;;;;;6.20;99.90;;;3.44;82.23;93876.75;10441681;28;1729;-83
2020/12/06 13:01:19;;;;;;;;;;;5.30;99.90;;;3.41;81.81;93882.59;10426545;28;1976;-86
2020/12/06 13:06:24;;;;;;;;;;;5.70;99.90;;;3.27;82.55;93878.16;10444083;28;2154;-84
2020/12/06 13:11:25;;;;;;;;;;;4.60;99.90;;;3.20;82.63;93865.97;10444918;28;1949;-86
2020/12/06 13:16:29;;;;;;;;;;;5.40;99.90;;;3.21;82.37;93856.94;10464933;28;2045;-84
2020/12/06 13:21:32;;;;;;;;;;;4.30;99.90;;;3.20;83.01;93860.66;10448651;28;1984;-83
2020/12/06 13:26:34;;;;;;;;;;;4.30;99.90;;;3.21;82.16;93861.47;10436601;28;2024;-84
2020/12/06 13:31:37;;;;;;;;;;;5.80;99.90;;;3.09;82.76;93872.41;10469106;28;1972;-87
2020/12/06 13:36:38;;;;;;;;;;;4.20;99.90;;;3.05;82.83;93859.94;10468640;28;1957;-84
2020/12/06 13:41:42;;;;;;;;;;;4.10;99.90;;;3.09;83.00;93868.97;10447742;28;2033;-85
2020/12/06 13:46:48;;;;;;;;;;;5.30;99.90;;;3.04;82.75;93872.41;10448078;28;1966;-85
2020/12/06 13:51:55;;;;;;;;;;;4.10;99.90;;;3.08;82.30;93872.69;10453905;28;1762;-85
2020/12/06 13:56:59;;;;;;;;;;;4.00;99.90;;;3.11;82.91;93872.13;10450815;28;1959;-86
2020/12/06 14:02:01;;;;;;;;;;;4.20;99.90;;;3.04;83.23;93876.94;10443458;28;1549;-85
2020/12/06 14:07:02;;;;;;;;;;;4.10;99.90;;;3.05;83.71;93887.28;10462642;28;2231;-85
2020/12/06 14:12:07;;;;;;;;;;;4.10;99.90;;;3.09;83.18;93895.50;10444923;28;2134;-86
2020/12/06 14:17:10;;;;;;;;;;;4.10;99.90;;;2.91;83.81;93896.91;10458899;28;1937;-84
2020/12/06 14:22:12;;;;;;;;;;;5.90;99.90;;;2.91;84.04;93894.25;10459359;28;1862;-85
2020/12/06 14:27:13;;;;;;;;;;;5.70;99.90;;;2.84;84.44;93883.13;10444286;28;1894;-86
2020/12/06 14:32:16;;;;;;;;;;;5.60;99.90;;;2.91;84.45;93894.25;10456096;28;1847;-87
2020/12/06 14:37:17;;;;;;;;;;;5.20;99.90;;;2.90;84.29;93892.66;10444266;28;1849;-85
2020/12/06 14:42:19;;;;;;;;;;;4.00;99.90;;;2.85;84.51;93887.38;10459444;28;2016;-85
2020/12/06 14:47:21;;;;;;;;;;;4.80;99.90;;;2.85;83.76;93884.72;10453342;28;1890;-86
2020/12/06 14:52:29;;;;;;;;;;;4.80;99.90;;;2.87;83.66;93886.06;10456097;28;1940;-84
2020/12/06 14:57:31;;;;;;;;;;;4.70;99.90;;;2.87;84.06;93882.59;10455814;28;2024;-84
2020/12/06 15:02:33;;;;;;;;;;;4.40;99.90;;;2.93;83.12;93870.91;10440240;28;1932;-85
2020/12/06 15:07:53;;;;;;;;;;;4.00;99.90;;;2.93;83.71;93870.91;10447423;28;1993;-84
2020/12/06 15:18:48;;;;;;;;;;;4.40;99.90;;;2.92;83.84;93869.28;10471346;28;1786;-86
2020/12/06 15:23:50;;;;;;;;;;;4.00;99.90;;;2.88;84.66;93860.31;10458557;28;1932;-85
2020/12/06 15:28:52;;;;;;;;;;;3.90;99.90;;;2.76;86.33;93851.84;10442808;28;1980;-85
2020/12/06 15:33:58;;;;;;;;;;;5.60;99.90;;;2.66;86.47;93840.19;10441962;28;2056;-84
2020/12/06 15:39:00;;;;;;;;;;;5.70;99.90;;;2.60;87.25;93820.06;10443440;28;1985;-83
2020/12/06 15:55:33;;;;;;;;;;;3.60;99.90;;;2.43;87.68;93833.66;10445852;28;1984;-84
2020/12/06 16:00:36;;;;;;;;;;;3.70;99.90;;;2.41;88.99;93864.16;10450912;28;1987;-84
2020/12/06 16:05:38;;;;;;;;;;;5.20;99.90;;;2.42;89.13;93871.06;10433884;28;2082;-83
2020/12/06 16:10:40;;;;;;;;;;;4.00;99.90;;;2.50;89.08;93883.78;10444588;28;2123;-85
2020/12/06 16:15:46;;;;;;;;;;;4.00;99.90;;;2.47;88.48;93878.19;10454939;28;2161;-85
2020/12/06 16:21:00;;;;;;;;;;;4.50;99.90;;;2.48;89.30;93877.91;10451089;28;1948;-85
2020/12/06 16:26:04;;;;;;;;;;;3.50;99.90;;;2.49;88.93;93868.94;10440582;28;2150;-84
2020/12/06 16:31:06;;;;;;;;;;;5.30;99.90;;;2.54;88.79;93854.84;10440620;28;1964;-85
2020/12/06 16:36:11;;;;;;;;;;;4.70;99.90;;;2.49;88.64;93871.56;10443892;28;2042;-83
2020/12/06 16:41:13;;;;;;;;;;;4.80;99.90;;;2.53;89.19;93899.13;10450175;28;2239;-84
2020/12/06 16:46:16;;;;;;;;;;;4.90;99.90;;;2.52;88.47;93896.75;10448489;28;2015;-83
2020/12/06 16:51:18;;;;;;;;;;;3.60;99.90;;;2.48;88.04;93875.28;10445653;28;2293;-83
2020/12/06 16:56:20;;;;;;;;;;;4.70;99.90;;;2.32;89.39;93879.81;10453458;28;2238;-84
2020/12/06 17:01:22;;;;;;;;;;;4.80;99.90;;;2.29;90.07;93868.94;10451198;28;2026;-85
2020/12/06 17:06:24;;;;;;;;;;;4.40;99.90;;;2.35;90.39;93875.84;10447368;28;1989;-82
2020/12/06 17:11:25;;;;;;;;;;;5.30;99.90;;;2.39;90.45;93882.19;10452104;28;2018;-85
2020/12/06 17:16:27;;;;;;;;;;;3.40;99.90;;;2.39;90.29;93871.59;10426978;28;2266;-84
2020/12/06 17:21:29;;;;;;;;;;;3.50;99.90;;;2.25;89.61;93865.25;10449158;28;2352;-85
2020/12/06 17:26:32;;;;;;;;;;;5.00;99.90;;;2.22;90.23;93855.97;10455196;28;2216;-84
2020/12/06 17:31:33;;;;;;;;;;;4.10;99.90;;;2.21;90.12;93837.69;10439628;28;2274;-84
2020/12/06 17:37:13;;;;;;;;;;;3.30;99.90;;;2.20;90.40;93852.81;10439086;28;2265;-84
2020/12/06 17:53:42;;;;;;;;;;;4.40;99.90;;;2.33;90.94;93865.50;10411162;28;1909;-85
2020/12/06 17:58:44;;;;;;;;;;;3.30;99.90;;;2.30;90.66;93841.41;10430443;28;2143;-86
2020/12/06 18:03:45;;;;;;;;;;;5.10;99.90;;;2.15;91.07;93808.53;10415989;28;1946;-85
2020/12/06 18:08:47;;;;;;;;;;;3.70;99.90;;;2.11;91.33;93804.06;10421556;28;1977;-85
2020/12/06 18:13:51;;;;;;;;;;;3.20;99.90;;;1.98;92.29;93794.81;10417565;28;1673;-84
2020/12/06 18:18:53;;;;;;;;;;;4.50;99.90;;;2.03;92.85;93800.09;10425007;28;1992;-83
2020/12/06 18:23:55;;;;;;;;;;;3.10;99.90;;;2.08;92.97;93807.25;10416449;28;1945;-86
2020/12/06 18:28:57;;;;;;;;;;;3.10;99.90;;;2.10;92.48;93800.63;10407987;28;1891;-85
2020/12/06 18:34:08;;;;;;;;;;;4.60;99.90;;;2.11;93.25;93786.31;10415284;28;1813;-85
2020/12/06 18:39:13;;;;;;;;;;;3.10;99.90;;;2.04;92.67;93791.09;10413624;28;1740;-85
2020/12/06 18:44:33;;;;;;;;;;;;;;;;;;;;;
2020/12/06 18:49:36;;;;;;;;;;;3.80;99.90;;;1.92;93.40;93787.94;10404719;28;2066;-86
2020/12/06 18:59:54;;;;;;;;;;;4.70;99.90;;;1.89;93.97;93796.41;10419950;28;2101;-84
2020/12/06 19:04:56;;;;;;;;;;;4.10;99.90;;;1.87;94.33;93801.19;10414328;28;1969;-84
2020/12/06 19:10:00;;;;;;;;;;;4.70;99.90;;;1.89;94.07;93793.75;10410447;28;1890;-84
2020/12/06 19:15:01;;;;;;;;;;;4.10;99.90;;;1.93;94.62;93767.53;10396550;28;1768;-84
2020/12/06 19:20:03;;;;;;;;;;;3.00;99.90;;;1.89;94.28;93793.75;10399158;28;2045;-84
2020/12/06 19:25:05;;;;;;;;;;;4.10;99.90;;;1.89;94.48;93777.84;10397776;28;1963;-86
2020/12/06 19:30:15;;;;;;;;;;;3.00;99.90;;;1.79;93.81;93767.28;10401367;28;2055;-84
2020/12/06 19:35:30;;;;;;;;;;;4.80;99.90;;;1.83;94.72;93755.88;10412718;28;2011;-83
2020/12/06 19:40:32;;;;;;;;;;;4.50;99.90;;;1.86;94.49;93767.81;10398977;28;2059;-84
2020/12/06 19:45:38;;;;;;;;;;;2.80;99.90;;;1.79;94.07;93764.66;10420095;28;1578;-84
2020/12/06 19:50:40;;;;;;;;;;;4.30;99.90;;;1.79;94.70;93752.19;10400942;28;1964;-84
2020/12/06 19:55:41;;;;;;;;;;;4.30;99.90;;;1.85;94.88;93767.03;10398898;28;1913;-83
2020/12/06 20:00:46;;;;;;;;;;;2.80;99.90;;;1.84;94.50;93791.09;10403755;28;2047;-85
2020/12/06 20:05:48;;;;;;;;;;;2.90;99.90;;;1.77;94.94;93769.41;10407129;28;1827;-84
2020/12/06 20:10:50;;;;;;;;;;;4.70;99.90;;;1.74;95.26;93785.84;10400231;28;1971;-84
2020/12/06 20:15:54;;;;;;;;;;;4.00;99.90;;;1.71;95.31;93775.75;10431175;28;1986;-83
2020/12/06 20:21:23;;;;;;;;;;;4.00;99.90;;;1.72;95.11;93772.03;10395033;28;2070;-83
2020/12/06 20:26:28;;;;;;;;;;;2.80;99.90;;;1.61;95.64;93756.19;10407603;28;1879;-84
2020/12/06 20:31:31;;;;;;;;;;;3.40;99.90;;;1.67;95.39;93758.84;10412014;28;1869;-83
2020/12/06 20:36:42;;;;;;;;;;;2.80;99.90;;;1.72;95.52;93740.25;10411556;28;2063;-84
2020/12/06 20:41:54;;;;;;;;;;;4.10;99.90;;;1.67;95.52;93759.63;10401390;28;1933;-83
2020/12/06 20:47:10;;;;;;;;;;;3.80;99.90;;;1.71;95.64;93781.84;10399980;28;2040;-83
2020/12/06 20:52:22;;;;;;;;;;;;;;;;;;;;;
2020/12/06 20:57:29;;;;;;;;;;;2.70;99.90;;;1.70;95.02;93758.28;10411653;28;2040;-84
2020/12/06 21:02:31;;;;;;;;;;;4.00;99.90;;;1.78;95.59;93760.38;10406864;28;1615;-85
2020/12/06 21:07:34;;;;;;;;;;;4.60;99.90;;;1.73;94.91;93736.59;10409115;28;2190;-81
2020/12/06 21:12:37;;;;;;;;;;;2.80;99.90;;;1.68;94.91;93732.06;10414392;28;2317;-83
2020/12/06 21:17:39;;;;;;;;;;;4.10;99.90;;;1.70;94.86;93737.88;10412497;28;1889;-84
2020/12/06 21:22:41;;;;;;;;;;;2.80;99.90;;;1.71;95.13;93754.56;10420124;28;2290;-84
2020/12/06 21:27:45;;;;;;;;;;;4.10;99.90;;;1.77;95.05;93746.34;10414787;28;2032;-83
2020/12/06 21:32:56;;;;;;;;;;;3.40;99.90;;;1.76;94.84;93747.41;10430240;28;1870;-85
2020/12/06 21:38:12;;;;;;;;;;;2.80;99.90;;;1.77;94.68;93745.56;10300639;28;2180;-85
2020/12/06 21:43:14;;;;;;;;;;;2.90;99.90;;;1.77;95.01;93749.00;10286746;28;1630;-85
2020/12/06 21:48:16;;;;;;;;;;;2.80;99.90;;;1.81;95.13;93749.28;10292176;28;2106;-85
2020/12/06 21:53:31;;;;;;;;;;;4.00;99.90;;;1.73;94.46;93769.16;10289501;28;2332;-84
2020/12/06 21:58:35;;;;;;;;;;;4.30;99.90;;;1.74;94.81;93762.00;10282828;28;2050;-83
2020/12/06 22:03:42;;;;;;;;;;;3.90;99.90;;;1.67;95.11;93764.13;10284349;28;1752;-84
2020/12/06 22:14:07;;;;;;;;;;;2.70;99.90;;;1.78;95.22;93771.81;10396187;28;1937;-84
2020/12/06 22:19:13;;;;;;;;;;;2.70;99.90;;;1.83;95.47;93795.63;10398176;28;1897;-83
2020/12/06 22:24:16;;;;;;;;;;;4.10;99.90;;;1.82;95.35;93788.72;10400266;28;1927;-85
2020/12/06 22:29:19;;;;;;;;;;;3.60;99.90;;;1.83;95.02;93792.19;10416388;28;2107;-84
2020/12/06 22:34:24;;;;;;;;;;;2.80;99.90;;;1.75;94.29;93776.81;10403483;28;1870;-86
2020/12/06 22:39:26;;;;;;;;;;;3.50;99.90;;;1.64;93.94;93770.75;10401839;28;1689;-84
2020/12/06 22:44:27;;;;;;;;;;;3.00;99.90;;;1.64;93.99;93776.03;10404833;28;2110;-85
2020/12/06 22:49:29;;;;;;;;;;;2.70;99.90;;;1.48;93.98;93783.22;10409420;28;2030;-84
2020/12/06 22:54:32;;;;;;;;;;;4.20;99.90;;;1.47;94.20;93799.38;10423103;28;1964;-84
2020/12/06 22:59:35;;;;;;;;;;;3.20;99.90;;;1.54;94.37;93819.22;10422446;28;2073;-84
2020/12/06 23:04:42;;;;;;;;;;;3.30;99.90;;;1.56;94.34;93822.38;10411074;28;1925;-84
2020/12/06 23:09:44;;;;;;;;;;;3.40;99.90;;;1.46;93.51;93805.69;10402225;28;1964;-84
2020/12/06 23:14:46;;;;;;;;;;;3.70;99.90;;;1.46;93.52;93806.50;10409010;28;2074;-84
2020/12/06 23:19:49;;;;;;;;;;;3.00;99.90;;;1.42;93.55;93799.38;10425938;28;1606;-84
2020/12/06 23:24:51;;;;;;;;;;;2.50;99.90;;;1.33;93.52;93791.94;10417902;28;1916;-85
2020/12/06 23:29:53;;;;;;;;;;;2.50;99.90;;;1.25;93.36;93779.22;10411750;28;1965;-83
2020/12/06 23:34:56;;;;;;;;;;;4.10;99.90;;;1.24;93.63;93772.34;10401803;28;2289;-82
2020/12/06 23:39:58;;;;;;;;;;;2.30;99.90;;;1.23;93.94;93769.97;10407654;28;2068;-83
2020/12/06 23:45:00;;;;;;;;;;;4.00;99.90;;;1.22;93.95;93771.03;10396022;28;1838;-84
2020/12/06 23:50:06;;;;;;;;;;;2.30;99.90;;;1.18;94.00;93777.91;10403990;28;1887;-84
2020/12/06 23:55:09;;;;;;;;;;;3.50;99.90;;;1.24;94.07;93760.97;10410095;28;1720;-84
